Newport State Airport


Codes: KUUU/NPT
Name: Newport State Airport
City: Newport
Country: United States
Elevation: 172 ft.
Wikipedia:

Photos at Newport State Airport


   Photos courtesy of SpottingLog. You can add your own sightings and photos by signing up for a free trial today.



No photos found.

Weather at Newport State Airport


Time (UTC)DescriptionTempratureWindCloud coverageVisibilityPressureHumidity
21-Feb-2024 03:00Clear Sky-3°C4 mph, SE1%10000m1033hPa67%
21-Feb-2024 06:00Clear Sky-3°C2 mph, E2%10000m1033hPa75%
21-Feb-2024 09:00Clear Sky-3°C4 mph, E10%10000m1033hPa81%
21-Feb-2024 12:00Few Clouds-3°C7 mph, E23%10000m1033hPa78%
21-Feb-2024 15:00Overcast Clouds1°C9 mph, E94%10000m1034hPa61%
21-Feb-2024 18:00Overcast Clouds2°C7 mph, E97%10000m1031hPa57%
21-Feb-2024 21:00Overcast Clouds1°C7 mph, E100%10000m1029hPa66%
22-Feb-2024 00:00Overcast Clouds-1°C7 mph, E100%10000m1029hPa78%
22-Feb-2024 03:00Overcast Clouds-2°C7 mph, NE100%10000m1027hPa83%
22-Feb-2024 06:00Overcast Clouds-2°C7 mph, N100%10000m1025hPa85%
22-Feb-2024 09:00Overcast Clouds-2°C7 mph, N99%10000m1022hPa87%
22-Feb-2024 12:00Broken Clouds-2°C4 mph, N74%10000m1021hPa88%
22-Feb-2024 15:00Clear Sky3°C4 mph, NE7%10000m1018hPa66%
22-Feb-2024 18:00Clear Sky5°C2 mph, SE7%10000m1014hPa57%
22-Feb-2024 21:00Clear Sky4°C4 mph, SW6%10000m1012hPa67%
23-Feb-2024 00:00Few Clouds0°C4 mph, S19%10000m1010hPa84%
23-Feb-2024 03:00Broken Clouds1°C4 mph, S73%10000m1009hPa81%
23-Feb-2024 06:00Overcast Clouds2°C9 mph, S87%10000m1006hPa83%
23-Feb-2024 09:00Overcast Clouds3°C11 mph, S100%10000m1003hPa84%
23-Feb-2024 12:00Overcast Clouds4°C11 mph, SE100%10000m999hPa90%
23-Feb-2024 15:00Light Rain6°C11 mph, SE100%10000m997hPa96%
23-Feb-2024 18:00Light Rain6°C11 mph, SW100%1026m996hPa98%
23-Feb-2024 21:00Overcast Clouds5°C7 mph, W100%1163m995hPa99%
24-Feb-2024 00:00Light Rain4°C9 mph, NW100%10000m996hPa93%
24-Feb-2024 03:00Overcast Clouds4°C11 mph, NW98%10000m997hPa86%
24-Feb-2024 06:00Broken Clouds2°C13 mph, NW82%10000m998hPa84%
24-Feb-2024 09:00Scattered Clouds0°C11 mph, NW26%10000m1000hPa83%
24-Feb-2024 12:00Few Clouds0°C13 mph, NW17%10000m1003hPa80%
24-Feb-2024 15:00Few Clouds0°C13 mph, NW11%10000m1006hPa56%
24-Feb-2024 18:00Few Clouds1°C13 mph, NW13%10000m1007hPa44%
24-Feb-2024 21:00Broken Clouds0°C13 mph, NW74%10000m1010hPa44%
25-Feb-2024 00:00Scattered Clouds-4°C9 mph, NW42%10000m1015hPa55%
25-Feb-2024 03:00Clear Sky-5°C7 mph, NW2%10000m1018hPa56%
25-Feb-2024 06:00Clear Sky-5°C4 mph, NW1%10000m1020hPa55%
25-Feb-2024 09:00Clear Sky-5°C4 mph, NW2%10000m1021hPa53%
25-Feb-2024 12:00Clear Sky-5°C4 mph, SW3%10000m1023hPa53%
25-Feb-2024 15:00Clear Sky-1°C9 mph, SW3%10000m1023hPa42%
25-Feb-2024 18:00Clear Sky1°C13 mph, SW4%10000m1021hPa48%
25-Feb-2024 21:00Scattered Clouds2°C16 mph, SW37%10000m1021hPa59%
26-Feb-2024 00:00Broken Clouds2°C16 mph, SW68%10000m1021hPa65%